EIGKD EGJJ-EGJJ

Flight info

Callsign EIGKD
Flight time 0h 20m
Altitude 1000
Route VFR CIRCUITS
Aircraft C152/L-DFOVY/C

Departure

Time 2026-05-05 20:04
Airport Jersey Airport (EGJJ)

Arrival

Time 2026-05-05 20:24
Airport Jersey Airport (EGJJ)
Time Latitude Longitude Altitude Speed Heading
2026-05-05 19:47 49.20684 -2.18376 269 ft 0 kts 356°
2026-05-05 19:57 49.20694 -2.18397 268 ft 9 kts 270°
2026-05-05 19:58 49.20697 -2.18444 266 ft 2 kts 286°
2026-05-05 19:58 49.20697 -2.18445 266 ft 0 kts 310°
2026-05-05 20:00 49.20718 -2.18471 266 ft 10 kts 326°
2026-05-05 20:00 49.20737 -2.18417 268 ft 10 kts 101°
2026-05-05 20:00 49.20770 -2.18318 270 ft 8 kts
2026-05-05 20:00 49.20793 -2.18317 270 ft 0 kts 356°
2026-05-05 20:03 49.20795 -2.18317 270 ft 4 kts 352°
2026-05-05 20:03 49.20874 -2.18380 270 ft 13 kts 330°
2026-05-05 20:03 49.20881 -2.18505 268 ft 26 kts 263°
2026-05-05 20:03 49.20834 -2.19017 308 ft 64 kts 264°
2026-05-05 20:04 49.20766 -2.19779 424 ft 80 kts 268°
2026-05-05 20:04 49.20722 -2.20693 590 ft 88 kts 272°
2026-05-05 20:04 49.20688 -2.21649 758 ft 94 kts 266°
2026-05-05 20:04 49.20532 -2.22629 948 ft 95 kts 262°
2026-05-05 20:05 49.20365 -2.23595 999 ft 91 kts 263°
2026-05-05 20:05 49.20211 -2.24553 990 ft 95 kts 263°
2026-05-05 20:05 49.19915 -2.25465 993 ft 103 kts 220°
2026-05-05 20:05 49.19236 -2.25691 996 ft 102 kts 171°
2026-05-05 20:06 49.18521 -2.25598 1036 ft 101 kts 174°
2026-05-05 20:06 49.17816 -2.25625 1050 ft 102 kts 175°
2026-05-05 20:06 49.17086 -2.25604 1015 ft 107 kts 179°
2026-05-05 20:06 49.16333 -2.25619 983 ft 109 kts 184°
2026-05-05 20:07 49.15578 -2.25478 963 ft 106 kts 147°
2026-05-05 20:07 49.15122 -2.24710 973 ft 95 kts 104°
2026-05-05 20:07 49.15116 -2.23734 963 ft 90 kts 78°
2026-05-05 20:07 49.15169 -2.22757 961 ft 91 kts 80°
2026-05-05 20:08 49.15198 -2.21782 981 ft 89 kts 82°
2026-05-05 20:08 49.15220 -2.20832 991 ft 90 kts 81°
2026-05-05 20:08 49.15299 -2.19858 992 ft 90 kts 71°
2026-05-05 20:08 49.15423 -2.18968 1022 ft 84 kts 70°
2026-05-05 20:09 49.15523 -2.18058 990 ft 89 kts 78°
2026-05-05 20:09 49.15707 -2.17158 954 ft 87 kts 56°
2026-05-05 20:09 49.15897 -2.16305 946 ft 91 kts 73°
2026-05-05 20:09 49.15973 -2.15387 945 ft 91 kts 76°
2026-05-05 20:10 49.16066 -2.14498 991 ft 85 kts 70°
2026-05-05 20:10 49.16153 -2.13616 1015 ft 85 kts 76°
2026-05-05 20:10 49.16278 -2.12755 969 ft 87 kts 68°
2026-05-05 20:10 49.16591 -2.11990 951 ft 83 kts 30°
2026-05-05 20:11 49.17160 -2.11847 875 ft 86 kts 352°
2026-05-05 20:11 49.17756 -2.11971 856 ft 86 kts 354°
2026-05-05 20:11 49.18337 -2.12118 859 ft 84 kts 353°
2026-05-05 20:11 49.18921 -2.12270 862 ft 82 kts 346°
2026-05-05 20:12 49.19468 -2.12541 870 ft 81 kts 342°
2026-05-05 20:12 49.20011 -2.12814 838 ft 83 kts 343°
2026-05-05 20:12 49.20554 -2.13175 846 ft 80 kts 336°
2026-05-05 20:12 49.20970 -2.13769 774 ft 94 kts 298°
2026-05-05 20:13 49.21102 -2.14778 750 ft 95 kts 278°
2026-05-05 20:13 49.21029 -2.15800 725 ft 94 kts 270°
2026-05-05 20:13 49.20981 -2.16717 577 ft 86 kts 280°
2026-05-05 20:13 49.20958 -2.17555 424 ft 70 kts 272°
2026-05-05 20:14 49.20899 -2.18258 317 ft 66 kts 268°
2026-05-05 20:14 49.20846 -2.18893 268 ft 51 kts 267°
2026-05-05 20:14 49.20795 -2.19519 312 ft 73 kts 266°
2026-05-05 20:14 49.20712 -2.20303 479 ft 79 kts 265°
2026-05-05 20:15 49.20609 -2.21211 592 ft 93 kts 262°
2026-05-05 20:15 49.20520 -2.22172 828 ft 89 kts 269°
2026-05-05 20:15 49.20439 -2.23150 914 ft 102 kts 268°
2026-05-05 20:15 49.20338 -2.24206 959 ft 98 kts 265°
2026-05-05 20:16 49.20124 -2.25190 969 ft 96 kts 243°
2026-05-05 20:16 49.19599 -2.25824 937 ft 101 kts 193°
2026-05-05 20:16 49.18911 -2.25843 946 ft 98 kts 182°
2026-05-05 20:16 49.18247 -2.25740 960 ft 97 kts 162°
2026-05-05 20:17 49.17593 -2.25501 984 ft 97 kts 167°
2026-05-05 20:17 49.16923 -2.25259 983 ft 99 kts 153°
2026-05-05 20:17 49.16473 -2.24517 933 ft 95 kts 100°
2026-05-05 20:17 49.16367 -2.23550 954 ft 89 kts 85°
2026-05-05 20:18 49.16339 -2.22607 964 ft 88 kts 87°
2026-05-05 20:18 49.16316 -2.21632 934 ft 93 kts 85°
2026-05-05 20:18 49.16293 -2.20662 969 ft 89 kts 84°
2026-05-05 20:18 49.16298 -2.19691 942 ft 92 kts 81°
2026-05-05 20:19 49.16276 -2.18699 920 ft 95 kts 87°
2026-05-05 20:19 49.16221 -2.17713 972 ft 89 kts 87°
2026-05-05 20:19 49.16203 -2.16760 986 ft 88 kts 84°
2026-05-05 20:19 49.16208 -2.15805 968 ft 90 kts 83°
2026-05-05 20:20 49.16251 -2.14822 937 ft 92 kts 76°
2026-05-05 20:20 49.16334 -2.13817 884 ft 95 kts 77°
2026-05-05 20:20 49.16449 -2.12904 957 ft 83 kts 57°
2026-05-05 20:20 49.16871 -2.12454 918 ft 84 kts
2026-05-05 20:21 49.17458 -2.12481 898 ft 78 kts 360°
2026-05-05 20:21 49.17809 -2.12510 891 ft 73 kts
2026-05-05 20:21 49.18480 -2.12519 887 ft 71 kts 358°
2026-05-05 20:21 49.18972 -2.12543 903 ft 70 kts
2026-05-05 20:22 49.19466 -2.12567 908 ft 69 kts 355°
2026-05-05 20:22 49.19955 -2.12612 885 ft 72 kts
2026-05-05 20:22 49.20417 -2.12653 912 ft 65 kts 353°
2026-05-05 20:22 49.20762 -2.13110 849 ft 76 kts 296°
2026-05-05 20:23 49.20951 -2.13852 785 ft 78 kts 289°
2026-05-05 20:23 49.21081 -2.14641 762 ft 76 kts 284°
2026-05-05 20:23 49.21079 -2.15484 691 ft 82 kts 266°
2026-05-05 20:23 49.21032 -2.16363 568 ft 85 kts 276°
2026-05-05 20:24 49.20981 -2.17233 439 ft 78 kts 269°
2026-05-05 20:24 49.20916 -2.18003 358 ft 68 kts 270°
2026-05-05 20:24 49.20866 -2.18671 285 ft 61 kts 271°
2026-05-05 20:24 49.20822 -2.19202 270 ft 39 kts 268°
2026-05-05 20:25 49.20774 -2.19715 300 ft 63 kts 263°
2026-05-05 20:25 49.20708 -2.20436 412 ft 76 kts 269°
2026-05-05 20:25 49.20651 -2.21308 523 ft 88 kts 268°
2026-05-05 20:25 49.20561 -2.22217 700 ft 91 kts 263°
2026-05-05 20:26 49.20417 -2.23190 826 ft 97 kts 262°
2026-05-05 20:26 49.20248 -2.24177 989 ft 96 kts 257°
2026-05-05 20:26 49.20042 -2.25208 985 ft 103 kts 251°
2026-05-05 20:26 49.19474 -2.25837 987 ft 103 kts 187°
2026-05-05 20:27 49.18767 -2.25763 1023 ft 99 kts 167°
2026-05-05 20:27 49.18079 -2.25586 1004 ft 102 kts 172°
2026-05-05 20:27 49.17371 -2.25483 1014 ft 100 kts 171°
2026-05-05 20:27 49.16717 -2.25331 1004 ft 102 kts 168°
2026-05-05 20:28 49.16168 -2.24791 962 ft 98 kts 110°
2026-05-05 20:28 49.16143 -2.23836 940 ft 88 kts 76°
2026-05-05 20:28 49.16200 -2.22901 909 ft 90 kts 79°
2026-05-05 20:28 49.16249 -2.21988 941 ft 81 kts 79°
2026-05-05 20:29 49.16266 -2.21100 907 ft 85 kts 86°
2026-05-05 20:29 49.16241 -2.20192 905 ft 82 kts 83°
2026-05-05 20:29 49.16275 -2.19299 882 ft 84 kts 79°
2026-05-05 20:29 49.16286 -2.18394 872 ft 83 kts 85°
2026-05-05 20:30 49.16268 -2.17477 835 ft 88 kts 85°
2026-05-05 20:30 49.16230 -2.16523 841 ft 86 kts 87°
2026-05-05 20:30 49.16216 -2.15659 900 ft 80 kts 82°
2026-05-05 20:30 49.16248 -2.14800 890 ft 82 kts 79°
2026-05-05 20:31 49.16289 -2.13946 900 ft 82 kts 79°
2026-05-05 20:31 49.16344 -2.13101 938 ft 77 kts 76°
2026-05-05 20:31 49.16507 -2.12303 905 ft 77 kts 38°
2026-05-05 20:31 49.17009 -2.12264 880 ft 79 kts 345°
2026-05-05 20:32 49.17536 -2.12506 895 ft 77 kts 345°
2026-05-05 20:32 49.18065 -2.12748 872 ft 78 kts 342°
2026-05-05 20:32 49.18579 -2.13032 885 ft 77 kts 346°
2026-05-05 20:32 49.19085 -2.13287 904 ft 76 kts 345°
2026-05-05 20:33 49.19564 -2.13547 915 ft 75 kts 342°
2026-05-05 20:33 49.20078 -2.13790 911 ft 75 kts 349°
2026-05-05 20:33 49.20571 -2.13996 945 ft 70 kts 344°
2026-05-05 20:33 49.21000 -2.14386 892 ft 76 kts 318°
2026-05-05 20:34 49.21143 -2.15192 750 ft 90 kts 269°
2026-05-05 20:34 49.21032 -2.16113 646 ft 84 kts 273°
2026-05-05 20:34 49.20989 -2.17015 486 ft 84 kts 269°
2026-05-05 20:34 49.20939 -2.17829 363 ft 71 kts 268°
2026-05-05 20:35 49.20877 -2.18522 292 ft 62 kts 271°
2026-05-05 20:35 49.20830 -2.19121 271 ft 51 kts 268°
2026-05-05 20:35 49.20807 -2.19434 270 ft 15 kts 261°
2026-05-05 20:35 49.20779 -2.19600 268 ft 17 kts 230°
2026-05-05 20:36 49.20701 -2.19619 268 ft 8 kts 169°
2026-05-05 20:36 49.20692 -2.19567 269 ft 4 kts 78°
2026-05-05 20:36 49.20705 -2.19461 270 ft 14 kts 85°
2026-05-05 20:36 49.20696 -2.19303 269 ft 15 kts 106°
2026-05-05 20:37 49.20678 -2.19151 267 ft 14 kts 91°
2026-05-05 20:37 49.20684 -2.19054 265 ft 13 kts 85°
2026-05-05 20:37 49.20698 -2.18886 265 ft 10 kts 85°
2026-05-05 20:37 49.20709 -2.18751 264 ft 16 kts 82°
2026-05-05 20:38 49.20725 -2.18560 265 ft 13 kts 82°
2026-05-05 20:38 49.20712 -2.18464 266 ft 8 kts 141°
2026-05-05 20:38 49.20694 -2.18408 268 ft 2 kts 98°
2026-05-05 20:38 49.20698 -2.18383 269 ft 0 kts 21°
2026-05-05 20:39 49.20707 -2.18382 269 ft 0 kts